createdAt,value
2022-10-13T00:00:51.068Z,87.60
2022-10-13T00:03:19.035Z,87.30
2022-10-13T00:05:49.896Z,86.90
2022-10-13T00:08:21.138Z,87.00
2022-10-13T00:10:50.970Z,87.40
2022-10-13T00:13:19.416Z,87.50
2022-10-13T00:15:47.913Z,87.70
2022-10-13T00:18:16.499Z,87.50
2022-10-13T00:20:47.265Z,88.10
2022-10-13T00:23:15.035Z,88.10
2022-10-13T00:25:43.803Z,87.30
2022-10-13T00:28:11.748Z,88.50
2022-10-13T00:30:40.261Z,88.30
2022-10-13T00:33:08.076Z,87.90
2022-10-13T00:35:40.168Z,87.70
2022-10-13T00:38:08.372Z,87.50
2022-10-13T00:40:43.090Z,87.00
2022-10-13T00:43:20.564Z,87.30
2022-10-13T00:45:51.032Z,87.30
2022-10-13T00:48:28.651Z,87.10
2022-10-13T00:50:58.748Z,87.10
2022-10-13T00:53:33.367Z,87.30
2022-10-13T00:56:01.649Z,87.50
2022-10-13T00:58:32.005Z,87.50
2022-10-13T01:01:00.351Z,87.30
2022-10-13T01:03:28.176Z,87.20
2022-10-13T01:05:59.719Z,87.40
2022-10-13T01:08:28.294Z,87.30
2022-10-13T01:10:55.633Z,87.10
2022-10-13T01:13:27.332Z,87.20
2022-10-13T01:16:04.253Z,87.40
2022-10-13T01:18:41.453Z,87.50
2022-10-13T01:21:26.105Z,88.00
2022-10-13T01:24:19.985Z,87.70
2022-10-13T01:27:19.083Z,87.40
2022-10-13T01:30:05.458Z,87.40
2022-10-13T01:33:14.297Z,87.50
2022-10-13T01:36:03.363Z,87.50
2022-10-13T01:38:51.545Z,87.70
2022-10-13T01:41:40.453Z,87.70
2022-10-13T01:44:38.270Z,87.60
2022-10-13T01:47:07.949Z,87.60
2022-10-13T01:49:37.202Z,87.20
2022-10-13T01:52:09.492Z,87.20
2022-10-13T01:54:36.823Z,87.40
2022-10-13T01:57:04.637Z,87.40
2022-10-13T01:59:35.549Z,87.30
2022-10-13T02:02:03.004Z,87.70
2022-10-13T02:04:42.106Z,87.30
2022-10-13T02:07:36.703Z,87.60
2022-10-13T02:10:18.175Z,87.40
2022-10-13T02:13:07.222Z,87.60
2022-10-13T02:15:50.962Z,88.00
2022-10-13T02:18:23.054Z,88.10
2022-10-13T02:20:51.561Z,87.80
2022-10-13T02:23:19.694Z,87.60
2022-10-13T02:25:50.381Z,87.60
2022-10-13T02:28:19.406Z,88.00
2022-10-13T02:30:47.830Z,88.30
2022-10-13T02:33:16.199Z,88.40
2022-10-13T02:35:44.042Z,88.00
2022-10-13T02:38:12.216Z,88.70
2022-10-13T02:40:39.574Z,88.60
2022-10-13T02:43:07.264Z,88.70
2022-10-13T02:45:34.660Z,88.80
2022-10-13T02:48:02.124Z,88.80
2022-10-13T02:50:29.883Z,88.60
2022-10-13T02:52:57.401Z,88.20
2022-10-13T02:55:24.760Z,88.40
2022-10-13T02:57:52.078Z,88.10
2022-10-13T03:00:20.222Z,87.60
2022-10-13T03:02:47.780Z,87.70
2022-10-13T03:05:15.244Z,87.80
2022-10-13T03:07:42.710Z,87.60
2022-10-13T03:10:10.241Z,87.60
2022-10-13T03:12:37.785Z,87.30
2022-10-13T03:15:05.734Z,87.20
2022-10-13T03:17:33.096Z,87.60
2022-10-13T03:20:00.452Z,87.80
2022-10-13T03:22:27.785Z,87.80
2022-10-13T03:24:55.324Z,88.50
2022-10-13T03:27:22.850Z,88.40
2022-10-13T03:29:50.343Z,88.00
2022-10-13T03:32:17.858Z,88.40
2022-10-13T03:34:45.578Z,88.00
2022-10-13T03:37:13.170Z,87.50
2022-10-13T03:39:40.676Z,87.30
2022-10-13T03:42:08.015Z,87.10
2022-10-13T03:44:35.403Z,87.40
2022-10-13T03:47:02.659Z,87.20
2022-10-13T03:49:30.138Z,87.60
2022-10-13T03:51:57.802Z,87.80
2022-10-13T03:54:25.094Z,88.20
2022-10-13T03:56:52.500Z,88.60
2022-10-13T03:59:19.952Z,88.50
2022-10-13T04:01:47.214Z,88.40
2022-10-13T04:04:14.739Z,88.60
2022-10-13T04:06:42.465Z,88.50
2022-10-13T04:09:10.180Z,88.80
2022-10-13T04:11:37.632Z,88.90
2022-10-13T04:14:04.923Z,89.20
2022-10-13T04:16:32.678Z,88.90
2022-10-13T04:19:05.406Z,88.70
2022-10-13T04:21:35.262Z,88.90
2022-10-13T04:24:04.317Z,89.00
2022-10-13T04:26:34.560Z,89.10
2022-10-13T04:29:04.947Z,89.20
2022-10-13T04:31:33.060Z,89.40
2022-10-13T04:34:00.660Z,89.20
2022-10-13T04:36:28.447Z,89.20
2022-10-13T04:38:56.448Z,89.30
2022-10-13T04:41:24.497Z,89.70
2022-10-13T04:43:53.042Z,89.40
2022-10-13T04:46:26.608Z,89.70
2022-10-13T04:48:55.796Z,90.40
2022-10-13T04:51:25.713Z,90.70
2022-10-13T04:54:05.795Z,90.40
2022-10-13T04:56:33.536Z,90.20
2022-10-13T04:59:00.931Z,90.50
2022-10-13T05:01:28.943Z,91.00
2022-10-13T05:03:59.054Z,90.60
2022-10-13T05:06:29.735Z,90.10
2022-10-13T05:08:57.896Z,89.10
2022-10-13T05:11:29.914Z,88.90
2022-10-13T05:13:57.905Z,88.90
2022-10-13T05:16:25.958Z,89.10
2022-10-13T05:18:55.425Z,89.10
2022-10-13T05:21:26.760Z,89.20
2022-10-13T05:23:56.208Z,89.50
2022-10-13T05:26:30.103Z,89.30
2022-10-13T05:28:58.697Z,88.80
2022-10-13T05:31:28.350Z,88.70
2022-10-13T05:33:56.238Z,88.90
2022-10-13T05:36:26.407Z,89.00
2022-10-13T05:38:56.051Z,89.10
2022-10-13T05:41:24.843Z,89.10
2022-10-13T05:43:57.623Z,90.40
2022-10-13T05:46:25.808Z,90.50
2022-10-13T05:48:53.497Z,90.70
2022-10-13T05:51:34.316Z,90.60
2022-10-13T05:54:16.352Z,90.40
2022-10-13T05:56:55.366Z,89.90
2022-10-13T05:59:27.343Z,89.80
2022-10-13T06:01:55.719Z,89.80
2022-10-13T06:04:30.877Z,89.50
2022-10-13T06:06:58.305Z,89.20
2022-10-13T06:09:32.597Z,88.90
2022-10-13T06:12:00.293Z,89.10
2022-10-13T06:14:31.352Z,88.90
2022-10-13T06:16:58.911Z,88.70
2022-10-13T06:19:26.481Z,87.80
2022-10-13T06:21:53.855Z,87.20
2022-10-13T06:24:21.456Z,87.40
2022-10-13T06:26:48.894Z,87.30
2022-10-13T06:29:16.491Z,87.80
2022-10-13T06:31:44.020Z,87.90
2022-10-13T06:34:12.532Z,88.40
2022-10-13T06:36:40.186Z,88.60
2022-10-13T06:39:07.644Z,88.90
2022-10-13T06:41:35.149Z,89.40
2022-10-13T06:44:02.572Z,90.40
2022-10-13T06:46:29.927Z,90.40
2022-10-13T06:48:57.251Z,90.40
2022-10-13T06:51:24.693Z,91.00
2022-10-13T06:53:52.980Z,91.30
2022-10-13T06:56:20.335Z,91.90
2022-10-13T06:58:48.559Z,91.90
2022-10-13T07:01:16.040Z,91.90
2022-10-13T07:03:43.582Z,92.00
2022-10-13T07:06:11.198Z,92.20
2022-10-13T07:08:38.661Z,92.20
2022-10-13T07:11:16.071Z,92.40
2022-10-13T07:13:46.629Z,92.60
2022-10-13T07:16:15.585Z,93.10
2022-10-13T07:18:43.027Z,92.80
2022-10-13T07:21:10.434Z,93.00
2022-10-13T07:23:38.088Z,93.30
2022-10-13T07:26:14.563Z,92.90
2022-10-13T07:28:43.285Z,92.90
2022-10-13T07:31:17.234Z,93.30
2022-10-13T07:33:48.738Z,93.00
2022-10-13T07:36:16.383Z,93.30
2022-10-13T07:38:43.815Z,93.40
2022-10-13T07:41:12.827Z,93.20
2022-10-13T07:43:40.816Z,92.90
2022-10-13T07:46:08.560Z,93.50
2022-10-13T07:48:36.258Z,93.20
2022-10-13T07:51:10.086Z,92.60
2022-10-13T07:53:38.181Z,93.30
2022-10-13T07:56:08.213Z,93.90
2022-10-13T07:58:38.427Z,94.20
2022-10-13T08:01:06.138Z,93.80
2022-10-13T08:03:33.607Z,94.30
2022-10-13T08:06:03.066Z,94.40
2022-10-13T08:08:31.226Z,93.90
2022-10-13T08:11:16.300Z,94.00
2022-10-13T08:13:51.221Z,94.20
2022-10-13T08:16:19.593Z,94.20
2022-10-13T08:18:47.354Z,93.90
2022-10-13T08:24:07.148Z,92.90
2022-10-13T08:26:34.611Z,92.90
2022-10-13T08:29:20.317Z,92.30
2022-10-13T08:34:24.136Z,91.80
2022-10-13T08:36:54.827Z,91.10
2022-10-13T08:39:23.485Z,91.20
2022-10-13T08:41:51.612Z,90.60
2022-10-13T08:47:47.439Z,91.00
2022-10-13T08:50:21.871Z,90.60
2022-10-13T08:53:05.577Z,90.80
2022-10-13T08:55:39.044Z,90.60
2022-10-13T08:58:15.582Z,90.30
2022-10-13T09:00:43.131Z,90.00
2022-10-13T09:03:23.793Z,89.90
2022-10-13T09:06:03.431Z,89.50
2022-10-13T09:08:44.324Z,89.30
2022-10-13T09:11:14.441Z,88.80
2022-10-13T09:13:41.839Z,89.10
2022-10-13T09:16:09.668Z,89.60
2022-10-13T09:18:38.035Z,88.90
2022-10-13T09:21:25.863Z,89.30
2022-10-13T09:23:54.479Z,89.40
2022-10-13T09:26:24.791Z,88.70
2022-10-13T09:28:54.074Z,88.90
2022-10-13T09:31:30.557Z,88.20
2022-10-13T09:34:19.542Z,89.00
2022-10-13T09:37:01.897Z,89.30
2022-10-13T09:39:30.425Z,88.90
2022-10-13T09:42:29.505Z,89.20
2022-10-13T09:45:18.066Z,88.90
2022-10-13T09:47:57.120Z,88.90
2022-10-13T09:50:29.331Z,88.30
2022-10-13T09:53:32.529Z,87.90
2022-10-13T09:56:08.867Z,87.90
2022-10-13T09:58:40.610Z,88.20
2022-10-13T10:01:19.142Z,87.40
2022-10-13T10:03:49.661Z,86.70
2022-10-13T10:06:17.813Z,86.00
2022-10-13T10:09:08.636Z,86.40
2022-10-13T10:11:42.712Z,86.20
2022-10-13T10:14:33.971Z,86.80
2022-10-13T10:17:17.812Z,87.30
2022-10-13T10:19:54.954Z,87.30
2022-10-13T10:22:53.355Z,87.40
2022-10-13T10:25:44.999Z,86.80
2022-10-13T10:28:47.947Z,86.20
2022-10-13T10:31:21.058Z,85.70
2022-10-13T10:33:54.309Z,85.70
2022-10-13T10:37:03.170Z,85.60
2022-10-13T10:40:07.107Z,85.60
2022-10-13T10:43:19.935Z,85.10
2022-10-13T10:45:48.456Z,84.10
2022-10-13T10:48:20.091Z,83.00
2022-10-13T10:50:48.719Z,84.50
2022-10-13T10:53:21.877Z,84.60
2022-10-13T10:56:26.901Z,84.60
2022-10-13T10:59:26.556Z,85.10
2022-10-13T11:02:19.748Z,85.40
2022-10-13T11:04:49.354Z,85.50
2022-10-13T11:07:25.529Z,85.60
2022-10-13T11:10:04.181Z,85.50
2022-10-13T11:12:53.071Z,85.70
2022-10-13T11:15:27.347Z,85.70
2022-10-13T11:17:54.951Z,85.90
2022-10-13T11:20:22.352Z,86.30
2022-10-13T11:22:58.716Z,86.40
2022-10-13T11:25:42.634Z,86.60
2022-10-13T11:28:22.467Z,87.00
2022-10-13T11:30:51.292Z,87.20
2022-10-13T11:33:37.449Z,87.20
2022-10-13T11:36:35.333Z,87.80
2022-10-13T11:39:17.594Z,85.30
2022-10-13T11:42:23.903Z,85.20
2022-10-13T11:45:18.841Z,86.00
2022-10-13T11:48:16.798Z,84.70
2022-10-13T11:50:46.896Z,84.50
2022-10-13T11:53:20.569Z,84.90
2022-10-13T11:55:59.373Z,85.00
2022-10-13T11:58:32.104Z,85.00
2022-10-13T12:01:07.137Z,85.60
2022-10-13T12:03:37.454Z,85.40
2022-10-13T12:06:17.373Z,84.90
2022-10-13T12:08:52.414Z,85.40
2022-10-13T12:11:28.608Z,85.70
2022-10-13T12:13:56.865Z,84.90
2022-10-13T12:16:24.304Z,85.20
2022-10-13T12:18:51.673Z,84.90
2022-10-13T12:21:22.883Z,85.20
2022-10-13T12:23:52.584Z,85.00
2022-10-13T12:26:25.727Z,85.40
2022-10-13T12:29:01.609Z,84.90
2022-10-13T12:31:40.736Z,85.00
2022-10-13T12:34:36.638Z,85.10
2022-10-13T12:37:18.547Z,85.50
2022-10-13T12:39:46.556Z,84.80
2022-10-13T12:42:15.061Z,84.80
2022-10-13T12:44:42.745Z,85.20
2022-10-13T12:47:55.992Z,85.20
2022-10-13T12:50:27.801Z,85.60
2022-10-13T12:53:17.387Z,86.60
2022-10-13T12:56:02.362Z,87.00
2022-10-13T12:58:35.103Z,88.90
2022-10-13T13:01:14.889Z,90.00
2022-10-13T13:03:44.176Z,90.40
2022-10-13T13:06:14.324Z,90.90
2022-10-13T13:08:43.609Z,91.00
2022-10-13T13:11:37.786Z,91.00
2022-10-13T13:14:23.707Z,90.80
2022-10-13T13:17:38.589Z,90.60
2022-10-13T13:20:20.347Z,91.00
2022-10-13T13:22:48.056Z,90.30
2022-10-13T13:25:16.230Z,90.80
2022-10-13T13:27:43.660Z,91.70
2022-10-13T13:30:16.587Z,91.40
2022-10-13T13:32:43.893Z,91.30
2022-10-13T13:35:11.558Z,91.80
2022-10-13T13:37:48.053Z,91.40
2022-10-13T13:40:18.936Z,91.30
2022-10-13T13:42:46.395Z,91.50
2022-10-13T13:45:18.470Z,91.60
2022-10-13T13:47:46.672Z,91.90
2022-10-13T13:50:20.699Z,92.10
2022-10-13T13:52:48.297Z,92.30
2022-10-13T13:55:16.018Z,92.30
2022-10-13T13:57:44.301Z,92.10
2022-10-13T14:00:14.217Z,92.70
2022-10-13T14:02:43.297Z,92.60
2022-10-13T14:05:11.412Z,93.20
2022-10-13T14:07:39.473Z,93.70
2022-10-13T14:10:08.108Z,93.50
2022-10-13T14:12:35.571Z,92.90
2022-10-13T14:15:03.089Z,93.10
2022-10-13T14:17:30.998Z,92.20
2022-10-13T14:19:58.501Z,92.50
2022-10-13T14:22:26.363Z,93.00
2022-10-13T14:24:55.089Z,93.30
2022-10-13T14:27:23.193Z,93.50
2022-10-13T14:29:52.054Z,93.80
2022-10-13T14:32:19.594Z,94.40
2022-10-13T14:34:47.154Z,94.50
2022-10-13T14:37:14.672Z,94.40
2022-10-13T14:39:42.101Z,94.70
2022-10-13T14:42:09.492Z,94.80
2022-10-13T14:44:36.944Z,94.90
2022-10-13T14:47:04.504Z,94.90
2022-10-13T14:49:32.734Z,95.40
2022-10-13T14:52:00.098Z,95.70
2022-10-13T14:54:27.582Z,95.60
2022-10-13T14:56:55.185Z,96.00
2022-10-13T14:59:22.804Z,95.90
2022-10-13T15:01:50.582Z,96.00
2022-10-13T15:04:17.985Z,96.40
2022-10-13T15:06:45.601Z,97.00
2022-10-13T15:09:13.087Z,96.00
2022-10-13T15:11:40.520Z,96.10
2022-10-13T15:14:09.966Z,96.30
2022-10-13T15:16:38.156Z,96.40
2022-10-13T15:19:05.626Z,96.30
2022-10-13T15:21:33.071Z,96.20
2022-10-13T15:24:01.785Z,96.50
2022-10-13T15:26:29.322Z,96.60
2022-10-13T15:28:56.695Z,96.60
2022-10-13T15:31:24.760Z,96.80
2022-10-13T15:33:54.035Z,96.90
2022-10-13T15:36:22.806Z,96.70
2022-10-13T15:38:50.866Z,96.70
2022-10-13T15:41:18.999Z,96.90
2022-10-13T15:43:46.520Z,97.10
2022-10-13T15:46:23.851Z,97.30
2022-10-13T15:48:53.560Z,97.40
2022-10-13T15:51:23.949Z,97.20
2022-10-13T15:53:51.553Z,97.30
2022-10-13T15:56:19.375Z,97.60
2022-10-13T15:58:47.022Z,97.70
2022-10-13T16:01:14.827Z,97.50
2022-10-13T16:03:43.019Z,97.50
2022-10-13T16:06:13.632Z,99.60
2022-10-13T16:08:44.302Z,94.40
2022-10-13T16:11:16.872Z,93.10
2022-10-13T16:13:49.392Z,93.70
2022-10-13T16:16:17.092Z,94.00
2022-10-13T16:18:45.432Z,94.70
2022-10-13T16:21:20.329Z,95.20
2022-10-13T16:23:50.305Z,95.60
2022-10-13T16:26:18.855Z,95.90
2022-10-13T16:28:47.116Z,96.00
2022-10-13T16:31:17.440Z,96.10
2022-10-13T16:33:46.181Z,96.30
2022-10-13T16:36:19.562Z,96.20
2022-10-13T16:38:48.656Z,96.50
2022-10-13T16:41:18.750Z,96.50
2022-10-13T16:43:47.765Z,96.70
2022-10-13T16:46:17.304Z,96.80
2022-10-13T16:48:47.016Z,96.90
2022-10-13T16:51:21.539Z,96.70
2022-10-13T16:53:54.060Z,97.00
2022-10-13T16:56:23.023Z,97.30
2022-10-13T16:58:55.725Z,97.10
2022-10-13T17:01:24.203Z,97.20
2022-10-13T17:03:52.245Z,97.30
2022-10-13T17:06:22.447Z,97.30
2022-10-13T17:08:50.204Z,97.20
2022-10-13T17:11:35.968Z,97.20
2022-10-13T17:14:04.125Z,97.40
2022-10-13T17:16:32.301Z,97.40
2022-10-13T17:19:00.185Z,97.20
2022-10-13T17:21:27.700Z,97.70
2022-10-13T17:23:56.449Z,97.70
2022-10-13T17:26:23.884Z,97.00
2022-10-13T17:28:53.463Z,97.30
2022-10-13T17:31:23.937Z,97.50
2022-10-13T17:33:52.578Z,97.20
2022-10-13T17:36:25.858Z,97.30
2022-10-13T17:38:55.927Z,97.80
2022-10-13T17:41:24.214Z,97.60
2022-10-13T17:43:52.808Z,98.10
2022-10-13T17:46:41.857Z,97.50
2022-10-13T17:49:12.290Z,97.50
2022-10-13T17:51:44.323Z,97.40
2022-10-13T17:54:15.980Z,97.50
2022-10-13T17:56:44.508Z,97.40
2022-10-13T17:59:13.129Z,97.40
2022-10-13T18:01:42.282Z,97.80
2022-10-13T18:04:15.458Z,97.60
2022-10-13T18:06:46.537Z,97.70
2022-10-13T18:09:17.055Z,97.80
2022-10-13T18:11:49.751Z,97.80
2022-10-13T18:14:19.748Z,97.60
2022-10-13T18:16:47.320Z,97.70
2022-10-13T18:19:14.927Z,97.90
2022-10-13T18:21:42.364Z,97.80
2022-10-13T18:24:12.400Z,97.70
2022-10-13T18:26:40.570Z,97.70
2022-10-13T18:29:09.801Z,97.90
2022-10-13T18:31:38.978Z,97.50
2022-10-13T18:34:09.488Z,97.60
2022-10-13T18:36:39.264Z,97.80
2022-10-13T18:39:15.751Z,97.60
2022-10-13T18:41:43.562Z,97.50
2022-10-13T18:44:10.882Z,97.80
2022-10-13T18:46:39.684Z,97.80
2022-10-13T18:49:08.937Z,97.80
2022-10-13T18:51:36.694Z,98.20
2022-10-13T18:54:05.774Z,97.90
2022-10-13T18:56:36.522Z,97.70
2022-10-13T18:59:05.323Z,97.70
2022-10-13T19:01:34.726Z,98.20
2022-10-13T19:04:02.147Z,98.10
2022-10-13T19:06:32.699Z,97.60
2022-10-13T19:09:06.024Z,97.80
2022-10-13T19:11:35.761Z,98.10
2022-10-13T19:14:04.057Z,98.00
2022-10-13T19:16:32.766Z,98.20
2022-10-13T19:19:00.161Z,98.30
2022-10-13T19:21:27.601Z,98.20
2022-10-13T19:23:55.787Z,98.20
2022-10-13T19:26:26.204Z,98.40
2022-10-13T19:29:03.964Z,98.20
2022-10-13T19:31:33.568Z,97.70
2022-10-13T19:34:01.416Z,98.20
2022-10-13T19:36:35.257Z,98.30
2022-10-13T19:39:04.881Z,98.20
2022-10-13T19:41:33.328Z,98.50
2022-10-13T19:44:01.160Z,98.40
2022-10-13T19:46:28.549Z,97.90
2022-10-13T19:48:55.839Z,98.20
2022-10-13T19:51:23.312Z,98.40
2022-10-13T19:53:50.711Z,98.20
2022-10-13T19:56:27.475Z,98.20
2022-10-13T19:58:55.169Z,98.70
2022-10-13T20:01:22.590Z,98.40
2022-10-13T20:03:50.841Z,98.00
2022-10-13T20:06:19.234Z,98.00
2022-10-13T20:08:47.510Z,98.10
2022-10-13T20:11:23.013Z,98.00
2022-10-13T20:13:52.237Z,97.90
2022-10-13T20:16:23.395Z,98.30
2022-10-13T20:18:57.514Z,98.30
2022-10-13T20:21:26.030Z,97.90
2022-10-13T20:23:54.590Z,98.20
2022-10-13T20:26:22.889Z,98.30
2022-10-13T20:28:51.293Z,98.30
2022-10-13T20:31:20.524Z,98.60
2022-10-13T20:33:49.995Z,98.30
2022-10-13T20:36:18.524Z,98.20
2022-10-13T20:38:48.241Z,98.70
2022-10-13T20:41:18.843Z,98.40
2022-10-13T20:43:50.044Z,98.20
2022-10-13T20:46:19.749Z,98.30
2022-10-13T20:51:35.469Z,98.50
2022-10-13T20:54:02.949Z,98.30
2022-10-13T20:56:30.351Z,98.40
2022-10-13T20:59:02.600Z,98.60
2022-10-13T21:01:29.999Z,98.50
2022-10-13T21:03:57.366Z,98.00
2022-10-13T21:06:26.085Z,98.40
2022-10-13T21:08:53.871Z,98.60
2022-10-13T21:11:22.845Z,98.30
2022-10-13T21:13:51.591Z,98.60
2022-10-13T21:16:21.789Z,98.50
2022-10-13T21:18:50.911Z,98.30
2022-10-13T21:21:26.639Z,98.50
2022-10-13T21:23:56.271Z,98.80
2022-10-13T21:26:25.161Z,98.90
2022-10-13T21:28:52.897Z,99.00
2022-10-13T21:31:22.632Z,98.70
2022-10-13T21:33:50.445Z,98.90
2022-10-13T21:36:21.215Z,98.60
2022-10-13T21:38:53.092Z,98.70
2022-10-13T21:41:21.671Z,98.70
2022-10-13T21:43:50.713Z,98.60
2022-10-13T21:46:25.100Z,98.70
2022-10-13T21:49:01.607Z,98.30
2022-10-13T21:51:33.342Z,98.10
2022-10-13T21:54:04.587Z,98.20
2022-10-13T21:56:33.325Z,98.60
2022-10-13T21:59:01.340Z,98.30
2022-10-13T22:01:29.121Z,98.20
2022-10-13T22:03:59.099Z,98.30
2022-10-13T22:06:28.050Z,98.40
2022-10-13T22:08:57.713Z,98.10
2022-10-13T22:11:31.083Z,98.30
2022-10-13T22:14:00.096Z,98.50
2022-10-13T22:16:33.840Z,97.90
2022-10-13T22:19:01.905Z,97.90
2022-10-13T22:21:32.523Z,98.10
2022-10-13T22:24:02.660Z,98.30
2022-10-13T22:26:32.205Z,98.00
2022-10-13T22:29:01.335Z,98.00
2022-10-13T22:31:29.718Z,97.80
2022-10-13T22:33:58.542Z,97.60
2022-10-13T22:36:26.922Z,97.50
2022-10-13T22:38:57.688Z,97.90
2022-10-13T22:41:25.167Z,97.90
2022-10-13T22:43:55.649Z,97.30
2022-10-13T22:46:26.220Z,97.70
2022-10-13T22:48:54.153Z,97.30
2022-10-13T22:51:23.188Z,97.20
2022-10-13T22:53:51.221Z,97.90
2022-10-13T22:56:21.572Z,97.60
2022-10-13T22:58:54.547Z,97.50
2022-10-13T23:01:22.523Z,96.90
2022-10-13T23:03:52.572Z,97.50
2022-10-13T23:06:22.628Z,97.80
2022-10-13T23:08:50.522Z,97.40
2022-10-13T23:11:19.225Z,97.60
2022-10-13T23:13:46.807Z,97.70
2022-10-13T23:16:17.950Z,97.30
2022-10-13T23:18:45.597Z,97.60
2022-10-13T23:21:15.698Z,97.70
2022-10-13T23:23:43.825Z,97.60
2022-10-13T23:26:14.500Z,97.70
2022-10-13T23:28:42.134Z,97.50
2022-10-13T23:31:14.020Z,97.30
2022-10-13T23:33:41.943Z,96.80
2022-10-13T23:36:14.775Z,97.20
2022-10-13T23:38:42.398Z,97.30
2022-10-13T23:41:12.577Z,97.00
2022-10-13T23:43:40.802Z,97.40
2022-10-13T23:46:10.998Z,97.40
2022-10-13T23:48:39.795Z,97.30
2022-10-13T23:51:12.501Z,97.00
2022-10-13T23:53:40.377Z,97.40
2022-10-13T23:56:09.790Z,97.50
2022-10-13T23:58:38.878Z,97.50
